Terminal Aerodrome Forecast
Issued by NWS

Home | Current Version | Previous Version | Text Only | Print | Product List | Glossary On
Versions: 1 2 3 4 5 6 7 8 9 10 11 12 13
039
FTUS45 KABQ 292331
TAFFMN
TAF
KFMN 292331Z 3000/3024 30016G22KT P6SM VCSH BKN070
     FM300300 30007KT P6SM BKN080
     FM300900 07006KT P6SM BKN070
     FM301800 26005KT P6SM BKN080
     FM302100 28008KT P6SM VCSH OVC070=

USA.gov is the U.S. government's official web portal to all federal, state and local government web resources and services.